createdAt,value
2022-09-15T00:01:51.365Z,1.52
2022-09-15T00:04:17.851Z,1.52
2022-09-15T00:06:44.276Z,1.38
2022-09-15T00:09:10.766Z,1.50
2022-09-15T00:11:38.058Z,1.48
2022-09-15T00:14:06.858Z,1.60
2022-09-15T00:16:33.598Z,1.10
2022-09-15T00:19:00.937Z,1.02
2022-09-15T00:21:31.307Z,1.30
2022-09-15T00:23:59.588Z,1.50
2022-09-15T00:26:27.562Z,1.60
2022-09-15T00:28:54.790Z,1.30
2022-09-15T00:31:22.958Z,1.52
2022-09-15T00:33:51.428Z,1.40
2022-09-15T00:36:18.611Z,1.80
2022-09-15T00:38:45.491Z,1.38
2022-09-15T00:41:16.243Z,1.75
2022-09-15T00:43:49.900Z,1.80
2022-09-15T00:46:20.296Z,2.00
2022-09-15T00:49:07.138Z,1.42
2022-09-15T00:51:48.055Z,1.70
2022-09-15T00:54:19.962Z,1.80
2022-09-15T00:56:49.041Z,1.90
2022-09-15T00:59:21.107Z,2.47
2022-09-15T01:01:55.243Z,2.00
2022-09-15T01:04:21.818Z,2.15
2022-09-15T01:06:53.874Z,2.25
2022-09-15T01:09:36.220Z,2.70
2022-09-15T01:12:03.947Z,2.47
2022-09-15T01:14:30.471Z,2.83
2022-09-15T01:17:06.868Z,2.97
2022-09-15T01:19:33.381Z,3.30
2022-09-15T01:22:06.141Z,3.15
2022-09-15T01:24:44.081Z,2.90
2022-09-15T01:27:43.519Z,2.53
2022-09-15T01:30:15.915Z,3.05
2022-09-15T01:33:04.146Z,3.20
2022-09-15T01:36:04.064Z,2.90
2022-09-15T01:38:42.517Z,2.20
2022-09-15T01:41:38.862Z,2.35
2022-09-15T01:44:13.121Z,2.40
2022-09-15T01:46:47.055Z,2.40
2022-09-15T01:49:19.419Z,2.67
2022-09-15T01:51:50.299Z,2.50
2022-09-15T01:54:19.947Z,2.80
2022-09-15T01:56:46.827Z,2.70
2022-09-15T01:59:13.365Z,2.92
2022-09-15T02:01:50.208Z,2.22
2022-09-15T02:04:38.576Z,2.58
2022-09-15T02:07:20.624Z,2.20
2022-09-15T02:10:05.413Z,2.15
2022-09-15T02:13:11.280Z,2.10
2022-09-15T02:15:42.830Z,1.90
2022-09-15T02:18:14.200Z,1.80
2022-09-15T02:20:53.597Z,1.95
2022-09-15T02:23:26.251Z,1.80
2022-09-15T02:25:58.133Z,1.98
2022-09-15T02:28:30.102Z,1.83
2022-09-15T02:30:59.175Z,2.60
2022-09-15T02:33:32.507Z,1.88
2022-09-15T02:36:00.066Z,2.13
2022-09-15T02:38:30.105Z,2.20
2022-09-15T02:40:57.103Z,2.67
2022-09-15T02:43:23.622Z,1.70
2022-09-15T02:45:50.802Z,2.10
2022-09-15T02:48:17.639Z,2.00
2022-09-15T02:50:44.061Z,2.10
2022-09-15T02:53:10.495Z,2.33
2022-09-15T02:55:37.041Z,2.30
2022-09-15T02:58:03.622Z,2.75
2022-09-15T03:00:31.134Z,2.17
2022-09-15T03:02:58.342Z,2.30
2022-09-15T03:05:27.957Z,2.10
2022-09-15T03:07:55.673Z,2.42
2022-09-15T03:10:24.030Z,2.35
2022-09-15T03:12:53.065Z,2.30
2022-09-15T03:15:22.401Z,2.42
2022-09-15T03:17:49.651Z,2.30
2022-09-15T03:20:21.590Z,2.13
2022-09-15T03:22:49.534Z,1.95
2022-09-15T03:25:17.596Z,2.28
2022-09-15T03:27:44.095Z,2.50
2022-09-15T03:30:11.634Z,3.25
2022-09-15T03:32:38.204Z,3.60
2022-09-15T03:35:06.075Z,2.85
2022-09-15T03:37:32.921Z,3.03
2022-09-15T03:39:59.610Z,3.08
2022-09-15T03:42:26.202Z,2.60
2022-09-15T03:44:53.002Z,3.13
2022-09-15T03:47:19.446Z,3.42
2022-09-15T03:49:45.858Z,2.90
2022-09-15T03:52:12.282Z,2.92
2022-09-15T03:54:38.687Z,2.95
2022-09-15T03:57:05.190Z,3.42
2022-09-15T03:59:31.616Z,3.55
2022-09-15T04:01:58.124Z,2.90
2022-09-15T04:04:24.610Z,2.97
2022-09-15T04:06:51.011Z,2.83
2022-09-15T04:09:18.591Z,2.80
2022-09-15T04:11:46.724Z,3.20
2022-09-15T04:14:13.157Z,2.80
2022-09-15T04:16:39.627Z,2.67
2022-09-15T04:19:06.109Z,2.97
2022-09-15T04:21:32.601Z,2.70
2022-09-15T04:23:59.046Z,2.70
2022-09-15T04:26:33.733Z,2.50
2022-09-15T04:29:04.298Z,2.50
2022-09-15T04:31:32.425Z,2.55
2022-09-15T04:33:59.436Z,3.30
2022-09-15T04:36:28.354Z,2.90
2022-09-15T04:38:56.067Z,3.15
2022-09-15T04:41:23.774Z,3.67
2022-09-15T04:43:50.510Z,2.83
2022-09-15T04:46:18.540Z,2.85
2022-09-15T04:48:46.188Z,2.78
2022-09-15T04:51:16.507Z,3.38
2022-09-15T04:53:43.645Z,3.22
2022-09-15T04:56:12.960Z,2.97
2022-09-15T04:58:50.967Z,2.95
2022-09-15T05:01:20.122Z,3.42
2022-09-15T05:03:47.550Z,3.88
2022-09-15T05:06:16.478Z,3.35
2022-09-15T05:08:43.591Z,4.15
2022-09-15T05:11:12.153Z,4.30
2022-09-15T05:13:40.373Z,4.40
2022-09-15T05:16:12.328Z,3.85
2022-09-15T05:18:40.348Z,3.88
2022-09-15T05:21:08.308Z,4.20
2022-09-15T05:23:35.560Z,3.90
2022-09-15T05:26:05.360Z,4.03
2022-09-15T05:28:33.933Z,3.70
2022-09-15T05:31:00.476Z,3.30
2022-09-15T05:33:27.338Z,3.53
2022-09-15T05:35:59.414Z,3.47
2022-09-15T05:38:28.236Z,3.00
2022-09-15T05:40:54.914Z,2.72
2022-09-15T05:43:21.479Z,2.50
2022-09-15T05:45:55.056Z,2.88
2022-09-15T05:48:21.863Z,3.55
2022-09-15T05:50:50.547Z,3.40
2022-09-15T05:53:17.275Z,3.20
2022-09-15T05:55:44.024Z,3.30
2022-09-15T05:58:11.281Z,2.50
2022-09-15T06:00:38.197Z,2.97
2022-09-15T06:03:04.653Z,3.70
2022-09-15T06:05:31.121Z,3.22
2022-09-15T06:07:57.542Z,2.67
2022-09-15T06:10:25.043Z,2.60
2022-09-15T06:12:54.783Z,2.42
2022-09-15T06:15:22.135Z,2.40
2022-09-15T06:17:48.724Z,2.45
2022-09-15T06:20:15.610Z,2.40
2022-09-15T06:22:42.063Z,2.40
2022-09-15T06:25:08.932Z,2.25
2022-09-15T06:27:35.346Z,2.45
2022-09-15T06:30:01.763Z,2.22
2022-09-15T06:32:28.195Z,2.40
2022-09-15T06:34:54.622Z,2.28
2022-09-15T06:37:21.529Z,1.85
2022-09-15T06:39:47.959Z,1.63
2022-09-15T06:42:14.351Z,2.03
2022-09-15T06:44:40.765Z,1.88
2022-09-15T06:47:07.401Z,2.22
2022-09-15T06:49:33.790Z,2.17
2022-09-15T06:52:02.467Z,2.10
2022-09-15T06:54:28.955Z,2.17
2022-09-15T06:56:55.450Z,2.00
2022-09-15T06:59:23.903Z,2.28
2022-09-15T07:01:54.619Z,1.88
2022-09-15T07:04:21.814Z,1.98
2022-09-15T07:06:48.816Z,1.77
2022-09-15T07:09:15.267Z,1.60
2022-09-15T07:11:41.705Z,1.65
2022-09-15T07:14:08.260Z,1.50
2022-09-15T07:16:34.787Z,1.20
2022-09-15T07:19:03.466Z,1.45
2022-09-15T07:21:29.884Z,2.28
2022-09-15T07:23:57.671Z,1.23
2022-09-15T07:26:26.585Z,1.58
2022-09-15T07:29:05.908Z,1.60
2022-09-15T07:31:34.575Z,2.08
2022-09-15T07:34:02.221Z,1.55
2022-09-15T07:36:29.799Z,1.92
2022-09-15T07:38:56.358Z,1.13
2022-09-15T07:41:25.479Z,1.10
2022-09-15T07:43:54.271Z,2.10
2022-09-15T07:46:22.204Z,1.63
2022-09-15T07:48:51.182Z,1.67
2022-09-15T07:51:18.075Z,1.80
2022-09-15T07:53:46.077Z,1.75
2022-09-15T07:56:12.913Z,1.65
2022-09-15T07:58:39.395Z,1.60
2022-09-15T08:01:08.158Z,1.40
2022-09-15T08:03:34.697Z,1.90
2022-09-15T08:06:02.381Z,1.85
2022-09-15T08:08:29.085Z,1.80
2022-09-15T08:10:55.791Z,1.23
2022-09-15T08:13:22.551Z,1.58
2022-09-15T08:15:49.064Z,1.45
2022-09-15T08:18:15.898Z,1.83
2022-09-15T08:20:43.165Z,1.92
2022-09-15T08:23:11.207Z,1.40
2022-09-15T08:25:40.460Z,2.00
2022-09-15T08:28:06.934Z,1.98
2022-09-15T08:30:33.378Z,2.05
2022-09-15T08:32:59.801Z,1.77
2022-09-15T08:35:26.389Z,1.60
2022-09-15T08:37:55.158Z,1.48
2022-09-15T08:40:26.805Z,1.92
2022-09-15T08:42:57.894Z,1.23
2022-09-15T08:45:27.776Z,1.55
2022-09-15T08:48:01.411Z,1.08
2022-09-15T08:50:49.997Z,1.48
2022-09-15T08:53:31.021Z,1.50
2022-09-15T08:56:05.415Z,1.58
2022-09-15T08:58:37.669Z,1.38
2022-09-15T09:01:17.464Z,1.17
2022-09-15T09:04:17.941Z,1.52
2022-09-15T09:07:09.520Z,1.20
2022-09-15T09:10:00.794Z,1.05
2022-09-15T09:12:45.597Z,1.30
2022-09-15T09:15:37.087Z,1.30
2022-09-15T09:18:38.808Z,1.23
2022-09-15T09:21:17.150Z,1.02
2022-09-15T09:24:15.088Z,1.00
2022-09-15T09:26:42.024Z,1.17
2022-09-15T09:29:16.801Z,1.00
2022-09-15T09:31:45.662Z,1.02
2022-09-15T09:34:18.155Z,1.48
2022-09-15T09:36:44.585Z,1.35
2022-09-15T09:39:15.252Z,1.38
2022-09-15T09:41:42.408Z,1.30
2022-09-15T09:44:14.548Z,1.30
2022-09-15T09:46:41.874Z,1.50
2022-09-15T09:49:19.067Z,1.40
2022-09-15T09:51:59.958Z,1.25
2022-09-15T09:54:28.678Z,1.20
2022-09-15T09:56:57.154Z,1.17
2022-09-15T09:59:46.254Z,1.38
2022-09-15T10:02:23.235Z,1.40
2022-09-15T10:04:51.130Z,1.33
2022-09-15T10:07:24.423Z,1.27
2022-09-15T10:09:54.893Z,1.25
2022-09-15T10:12:33.211Z,0.95
2022-09-15T10:15:02.885Z,1.55
2022-09-15T10:17:43.930Z,1.08
2022-09-15T10:20:35.625Z,1.27
2022-09-15T10:23:17.581Z,1.23
2022-09-15T10:25:58.672Z,1.10
2022-09-15T10:28:27.034Z,1.17
2022-09-15T10:31:04.897Z,1.08
2022-09-15T10:33:41.851Z,1.02
2022-09-15T10:36:17.695Z,1.10
2022-09-15T10:38:54.414Z,1.52
2022-09-15T10:41:27.203Z,1.50
2022-09-15T10:44:18.678Z,1.10
2022-09-15T10:47:03.664Z,1.20
2022-09-15T10:49:39.019Z,1.27
2022-09-15T10:52:35.428Z,1.10
2022-09-15T10:55:42.139Z,1.70
2022-09-15T10:58:32.193Z,1.30
2022-09-15T11:01:04.013Z,1.05
2022-09-15T11:04:05.014Z,1.00
2022-09-15T11:06:59.135Z,1.60
2022-09-15T11:09:34.631Z,1.00
2022-09-15T11:12:16.836Z,1.05
2022-09-15T11:15:14.752Z,1.20
2022-09-15T11:18:07.814Z,1.23
2022-09-15T11:21:10.904Z,1.17
2022-09-15T11:23:50.231Z,1.10
2022-09-15T11:26:31.321Z,1.17
2022-09-15T11:29:05.577Z,1.00
2022-09-15T11:31:42.559Z,0.90
2022-09-15T11:34:22.762Z,0.88
2022-09-15T11:37:24.082Z,1.45
2022-09-15T11:40:17.399Z,1.08
2022-09-15T11:45:18.235Z,0.70
2022-09-15T11:47:50.409Z,0.70
2022-09-15T11:50:30.575Z,0.70
2022-09-15T11:53:16.989Z,1.00
2022-09-15T11:55:52.406Z,1.25
2022-09-15T11:58:27.816Z,0.80
2022-09-15T12:01:16.350Z,0.80
2022-09-15T12:04:12.771Z,0.68
2022-09-15T12:06:51.178Z,0.70
2022-09-15T12:09:19.825Z,0.65
2022-09-15T12:11:49.080Z,0.90
2022-09-15T12:14:37.474Z,0.60
2022-09-15T12:17:11.285Z,0.82
2022-09-15T12:19:37.685Z,0.80
2022-09-15T12:22:29.091Z,1.10
2022-09-15T12:25:01.274Z,0.68
2022-09-15T12:27:28.384Z,0.70
2022-09-15T12:29:57.424Z,0.93
2022-09-15T12:32:34.919Z,0.70
2022-09-15T12:35:16.422Z,0.88
2022-09-15T12:38:03.131Z,0.70
2022-09-15T12:40:41.857Z,0.68
2022-09-15T12:43:11.531Z,1.05
2022-09-15T12:45:39.630Z,0.90
2022-09-15T12:48:20.357Z,0.77
2022-09-15T12:51:10.387Z,1.20
2022-09-15T12:53:50.725Z,0.70
2022-09-15T12:56:26.089Z,0.82
2022-09-15T12:58:54.261Z,0.80
2022-09-15T13:01:23.603Z,0.70
2022-09-15T13:03:50.151Z,0.50
2022-09-15T13:06:27.648Z,0.60
2022-09-15T13:09:01.347Z,0.50
2022-09-15T13:11:31.819Z,0.90
2022-09-15T13:14:06.609Z,1.05
2022-09-15T13:16:48.063Z,0.88
2022-09-15T13:19:44.425Z,0.63
2022-09-15T13:22:10.770Z,0.70
2022-09-15T13:25:07.226Z,0.80
2022-09-15T13:27:45.617Z,0.80
2022-09-15T13:30:24.192Z,0.82
2022-09-15T13:35:02.146Z,0.80
2022-09-15T13:39:52.955Z,0.70
2022-09-15T13:42:25.512Z,0.80
2022-09-15T13:45:20.995Z,1.00
2022-09-15T13:47:51.895Z,0.60
2022-09-15T13:50:24.806Z,0.82
2022-09-15T13:53:21.656Z,0.80
2022-09-15T13:55:48.476Z,0.90
2022-09-15T14:01:07.446Z,0.90
2022-09-15T14:03:39.552Z,0.90
2022-09-15T14:06:11.491Z,0.75
2022-09-15T14:08:39.371Z,0.82
2022-09-15T14:11:09.989Z,0.93
2022-09-15T14:13:41.430Z,0.98
2022-09-15T14:16:24.099Z,0.90
2022-09-15T14:18:53.997Z,0.90
2022-09-15T14:21:23.113Z,0.80
2022-09-15T14:23:51.533Z,1.10
2022-09-15T14:26:29.679Z,1.10
2022-09-15T14:29:02.477Z,0.93
2022-09-15T14:31:30.417Z,0.70
2022-09-15T14:33:57.606Z,1.00
2022-09-15T14:36:42.300Z,0.70
2022-09-15T14:39:11.638Z,0.70
2022-09-15T14:41:41.417Z,0.68
2022-09-15T14:47:38.728Z,1.00
2022-09-15T14:50:12.218Z,0.98
2022-09-15T14:52:42.481Z,1.02
2022-09-15T14:55:18.985Z,1.13
2022-09-15T14:57:54.526Z,1.20
2022-09-15T15:00:25.139Z,1.00
2022-09-15T15:03:19.053Z,0.90
2022-09-15T15:05:54.684Z,1.00
2022-09-15T15:08:57.950Z,1.05
2022-09-15T15:11:24.798Z,1.13
2022-09-15T15:13:52.748Z,1.33
2022-09-15T15:16:25.499Z,1.10
2022-09-15T15:18:53.350Z,1.30
2022-09-15T15:21:36.256Z,1.05
2022-09-15T15:24:09.990Z,0.90
2022-09-15T15:26:38.545Z,0.90
2022-09-15T15:29:09.145Z,1.00
2022-09-15T15:31:40.007Z,0.80
2022-09-15T15:34:24.500Z,0.82
2022-09-15T15:36:50.969Z,0.85
2022-09-15T15:39:24.951Z,1.05
2022-09-15T15:42:02.192Z,0.90
2022-09-15T15:44:29.953Z,0.68
2022-09-15T15:47:23.552Z,1.20
2022-09-15T15:52:37.955Z,0.82
2022-09-15T15:55:05.438Z,0.90
2022-09-15T15:57:38.894Z,0.85
2022-09-15T16:00:25.770Z,1.00
2022-09-15T16:02:53.160Z,0.98
2022-09-15T16:05:22.117Z,0.70
2022-09-15T16:07:50.991Z,1.00
2022-09-15T16:10:20.957Z,0.73
2022-09-15T16:12:48.088Z,1.00
2022-09-15T16:15:20.375Z,0.80
2022-09-15T16:17:48.034Z,1.10
2022-09-15T16:20:16.043Z,0.70
2022-09-15T16:22:43.329Z,1.00
2022-09-15T16:25:30.866Z,1.23
2022-09-15T16:27:57.292Z,1.10
2022-09-15T16:30:23.761Z,1.00
2022-09-15T16:32:50.274Z,1.15
2022-09-15T16:35:35.031Z,0.95
2022-09-15T16:38:01.578Z,1.20
2022-09-15T16:40:28.475Z,1.20
2022-09-15T16:42:55.029Z,1.33
2022-09-15T16:45:38.061Z,1.20
2022-09-15T16:48:07.545Z,1.67
2022-09-15T16:50:34.022Z,1.20
2022-09-15T16:53:00.485Z,1.08
2022-09-15T16:55:39.092Z,1.00
2022-09-15T16:58:06.323Z,1.20
2022-09-15T17:00:37.836Z,1.20
2022-09-15T17:03:05.742Z,1.30
2022-09-15T17:05:40.015Z,1.10
2022-09-15T17:08:08.238Z,1.45
2022-09-15T17:10:35.550Z,1.10
2022-09-15T17:13:02.372Z,1.30
2022-09-15T17:15:31.726Z,1.23
2022-09-15T17:17:58.159Z,1.38
2022-09-15T17:20:25.320Z,1.17
2022-09-15T17:22:53.006Z,1.23
2022-09-15T17:25:29.403Z,0.95
2022-09-15T17:27:57.547Z,1.75
2022-09-15T17:30:30.394Z,1.30
2022-09-15T17:33:10.366Z,1.30
2022-09-15T17:35:37.743Z,1.60
2022-09-15T17:38:05.880Z,1.20
2022-09-15T17:40:33.505Z,1.27
2022-09-15T17:43:03.346Z,1.00
2022-09-15T17:45:36.761Z,1.23
2022-09-15T17:48:06.275Z,1.20
2022-09-15T17:50:34.322Z,1.00
2022-09-15T17:53:00.919Z,0.77
2022-09-15T17:55:30.420Z,1.55
2022-09-15T17:57:59.830Z,0.80
2022-09-15T18:00:29.272Z,1.35
2022-09-15T18:02:58.124Z,1.23
2022-09-15T18:05:36.486Z,1.17
2022-09-15T18:08:05.133Z,1.55
2022-09-15T18:10:33.927Z,1.77
2022-09-15T18:13:01.574Z,1.27
2022-09-15T18:15:31.661Z,1.17
2022-09-15T18:18:02.795Z,1.10
2022-09-15T18:20:32.413Z,1.80
2022-09-15T18:23:00.062Z,1.48
2022-09-15T18:25:30.913Z,1.05
2022-09-15T18:27:58.847Z,1.30
2022-09-15T18:30:28.005Z,1.30
2022-09-15T18:32:54.488Z,1.15
2022-09-15T18:35:21.741Z,1.67
2022-09-15T18:37:49.788Z,1.50
2022-09-15T18:40:18.203Z,1.50
2022-09-15T18:42:45.571Z,1.40
2022-09-15T18:45:14.435Z,1.25
2022-09-15T18:47:43.676Z,1.10
2022-09-15T18:50:12.687Z,1.30
2022-09-15T18:52:40.893Z,1.58
2022-09-15T18:55:09.620Z,1.52
2022-09-15T18:57:37.512Z,2.03
2022-09-15T19:00:07.544Z,1.90
2022-09-15T19:02:34.254Z,1.80
2022-09-15T19:05:01.057Z,1.63
2022-09-15T19:07:28.629Z,1.55
2022-09-15T19:09:56.828Z,1.40
2022-09-15T19:12:23.630Z,1.38
2022-09-15T19:14:50.084Z,1.40
2022-09-15T19:17:16.897Z,1.27
2022-09-15T19:19:43.541Z,1.50
2022-09-15T19:22:10.372Z,1.42
2022-09-15T19:24:37.091Z,1.50
2022-09-15T19:27:05.486Z,1.33
2022-09-15T19:29:34.820Z,1.30
2022-09-15T19:32:04.033Z,1.35
2022-09-15T19:34:30.709Z,1.52
2022-09-15T19:36:57.302Z,1.40
2022-09-15T19:39:23.797Z,1.45
2022-09-15T19:41:50.441Z,1.17
2022-09-15T19:44:17.173Z,1.30
2022-09-15T19:46:43.702Z,1.20
2022-09-15T19:49:10.376Z,1.35
2022-09-15T19:51:37.109Z,1.52
2022-09-15T19:54:06.959Z,1.35
2022-09-15T19:56:34.462Z,1.48
2022-09-15T19:59:01.847Z,1.50
2022-09-15T20:01:32.522Z,1.33
2022-09-15T20:06:43.361Z,1.80
2022-09-15T20:09:10.421Z,2.10
2022-09-15T20:11:37.008Z,2.70
2022-09-15T20:14:05.737Z,3.20
2022-09-15T20:16:32.617Z,2.08
2022-09-15T20:18:58.970Z,3.00
2022-09-15T20:21:49.224Z,2.95
2022-09-15T20:24:16.693Z,2.97
2022-09-15T20:26:43.193Z,2.70
2022-09-15T20:29:10.492Z,2.60
2022-09-15T20:31:36.987Z,3.05
2022-09-15T20:34:03.401Z,2.88
2022-09-15T20:36:33.846Z,3.10
2022-09-15T20:39:03.195Z,2.78
2022-09-15T20:41:31.779Z,2.38
2022-09-15T20:43:58.226Z,2.45
2022-09-15T20:46:25.234Z,2.40
2022-09-15T20:48:52.558Z,2.88
2022-09-15T20:51:25.544Z,2.70
2022-09-15T20:53:53.922Z,3.05
2022-09-15T20:56:24.910Z,2.25
2022-09-15T20:58:53.068Z,2.42
2022-09-15T21:01:22.797Z,2.67
2022-09-15T21:03:49.899Z,1.98
2022-09-15T21:06:21.585Z,2.10
2022-09-15T21:08:49.693Z,2.22
2022-09-15T21:11:17.545Z,1.95
2022-09-15T21:13:44.288Z,2.08
2022-09-15T21:16:14.567Z,1.95
2022-09-15T21:18:42.240Z,2.10
2022-09-15T21:21:20.750Z,1.95
2022-09-15T21:23:54.756Z,2.05
2022-09-15T21:26:26.701Z,2.20
2022-09-15T21:28:54.459Z,2.10
2022-09-15T21:31:29.981Z,2.10
2022-09-15T21:33:57.185Z,2.10
2022-09-15T21:36:27.529Z,2.28
2022-09-15T21:38:56.132Z,2.40
2022-09-15T21:41:26.035Z,2.30
2022-09-15T21:43:54.854Z,1.95
2022-09-15T21:46:23.906Z,2.03
2022-09-15T21:48:50.365Z,2.17
2022-09-15T21:51:23.492Z,2.35
2022-09-15T21:53:52.593Z,2.15
2022-09-15T21:56:19.423Z,2.10
2022-09-15T21:58:45.923Z,2.20
2022-09-15T22:01:21.712Z,3.15
2022-09-15T22:03:53.240Z,2.60
2022-09-15T22:06:21.773Z,2.40
2022-09-15T22:08:48.437Z,2.28
2022-09-15T22:11:15.029Z,2.25
2022-09-15T22:13:43.728Z,2.25
2022-09-15T22:16:18.561Z,2.20
2022-09-15T22:18:45.542Z,1.95
2022-09-15T22:21:14.905Z,2.10
2022-09-15T22:23:42.998Z,2.00
2022-09-15T22:26:15.521Z,2.13
2022-09-15T22:28:42.481Z,1.70
2022-09-15T22:31:11.137Z,1.60
2022-09-15T22:33:40.888Z,1.70
2022-09-15T22:36:11.856Z,1.67
2022-09-15T22:38:38.715Z,2.00
2022-09-15T22:41:07.004Z,1.92
2022-09-15T22:43:33.659Z,2.40
2022-09-15T22:46:00.240Z,1.75
2022-09-15T22:48:27.075Z,1.80
2022-09-15T22:50:53.500Z,1.90
2022-09-15T22:53:20.027Z,2.20
2022-09-15T22:55:46.487Z,2.22
2022-09-15T22:58:12.938Z,1.80
2022-09-15T23:00:39.447Z,1.65
2022-09-15T23:03:07.143Z,1.80
2022-09-15T23:05:34.442Z,2.00
2022-09-15T23:08:01.169Z,1.95
2022-09-15T23:10:28.211Z,1.80
2022-09-15T23:12:54.637Z,1.80
2022-09-15T23:15:21.062Z,1.80
2022-09-15T23:17:47.935Z,2.40
2022-09-15T23:20:14.424Z,1.85
2022-09-15T23:22:40.859Z,2.20
2022-09-15T23:25:07.701Z,1.90
2022-09-15T23:27:34.314Z,1.58
2022-09-15T23:30:00.793Z,2.25
2022-09-15T23:32:27.298Z,2.03
2022-09-15T23:34:53.754Z,2.25
2022-09-15T23:37:20.190Z,2.03
2022-09-15T23:39:46.682Z,1.90
2022-09-15T23:42:18.100Z,2.35
2022-09-15T23:44:45.272Z,2.33
2022-09-15T23:47:11.740Z,2.10
2022-09-15T23:49:38.269Z,1.98
2022-09-15T23:52:04.719Z,1.92
2022-09-15T23:54:31.183Z,2.28
2022-09-15T23:56:57.675Z,1.92
2022-09-15T23:59:24.149Z,2.10
